createdAt,value
2023-11-30T00:00:56.129Z,80.53
2023-11-30T00:01:56.175Z,79.19
2023-11-30T00:02:56.256Z,76.00
2023-11-30T00:03:56.387Z,75.87
2023-11-30T00:04:56.281Z,77.01
2023-11-30T00:05:56.373Z,74.75
2023-11-30T00:06:56.375Z,76.19
2023-11-30T00:07:56.428Z,77.77
2023-11-30T00:08:56.499Z,78.52
2023-11-30T00:09:56.540Z,71.47
2023-11-30T00:10:56.614Z,71.91
2023-11-30T00:11:56.655Z,75.56
2023-11-30T00:12:56.667Z,79.92
2023-11-30T00:13:56.756Z,71.42
2023-11-30T00:14:56.819Z,71.72
2023-11-30T00:15:56.839Z,72.35
2023-11-30T00:16:57.011Z,73.44
2023-11-30T00:17:57.049Z,67.88
2023-11-30T00:18:57.074Z,75.11
2023-11-30T00:19:57.061Z,77.42
2023-11-30T00:20:57.129Z,71.53
2023-11-30T00:21:57.130Z,76.33
2023-11-30T00:22:57.170Z,78.23
2023-11-30T00:23:57.294Z,74.25
2023-11-30T00:24:57.311Z,73.14
2023-11-30T00:25:57.310Z,71.88
2023-11-30T00:26:58.272Z,73.35
2023-11-30T00:27:57.425Z,72.98
2023-11-30T00:28:57.491Z,70.33
2023-11-30T00:29:57.487Z,70.80
2023-11-30T00:30:57.577Z,72.59
2023-11-30T00:31:57.595Z,70.26
2023-11-30T00:32:57.702Z,70.84
2023-11-30T00:33:57.686Z,69.19
2023-11-30T00:34:57.704Z,69.88
2023-11-30T00:35:57.821Z,70.28
2023-11-30T00:36:58.260Z,67.71
2023-11-30T00:37:57.823Z,65.94
2023-11-30T00:38:57.881Z,68.97
2023-11-30T00:39:57.892Z,73.16
2023-11-30T00:40:57.957Z,66.41
2023-11-30T00:41:58.176Z,69.45
2023-11-30T00:42:58.058Z,68.73
2023-11-30T00:43:58.052Z,63.78
2023-11-30T00:44:58.142Z,74.18
2023-11-30T00:46:06.884Z,67.85
2023-11-30T00:46:59.104Z,68.07
2023-11-30T00:47:58.214Z,68.52
2023-11-30T00:48:58.115Z,67.31
2023-11-30T00:49:58.121Z,68.01
2023-11-30T00:50:58.133Z,68.98
2023-11-30T00:51:58.119Z,70.97
2023-11-30T00:52:58.114Z,65.33
2023-11-30T00:53:58.178Z,67.85
2023-11-30T00:54:58.134Z,69.80
2023-11-30T00:55:58.126Z,68.16
2023-11-30T00:56:58.157Z,63.29
2023-11-30T00:57:58.162Z,65.90
2023-11-30T00:58:58.137Z,67.02
2023-11-30T00:59:58.169Z,64.12
2023-11-30T01:00:58.186Z,64.86
2023-11-30T01:01:58.235Z,65.83
2023-11-30T01:02:58.189Z,65.65
2023-11-30T01:03:58.164Z,63.11
2023-11-30T01:04:58.121Z,67.19
2023-11-30T01:05:58.132Z,63.80
2023-11-30T01:06:58.175Z,60.94
2023-11-30T01:07:58.153Z,62.21
2023-11-30T01:08:58.188Z,63.33
2023-11-30T01:09:58.176Z,64.95
2023-11-30T01:10:58.137Z,64.82
2023-11-30T01:11:58.210Z,65.66
2023-11-30T01:12:58.186Z,66.94
2023-11-30T01:13:58.165Z,65.73
2023-11-30T01:14:58.223Z,68.15
2023-11-30T01:15:58.244Z,65.84
2023-11-30T01:16:58.272Z,65.31
2023-11-30T01:17:58.322Z,61.75
2023-11-30T01:18:58.348Z,63.07
2023-11-30T01:19:58.293Z,63.22
2023-11-30T01:20:58.347Z,64.49
2023-11-30T01:21:58.302Z,68.99
2023-11-30T01:22:58.346Z,68.08
2023-11-30T01:23:58.375Z,73.47
2023-11-30T01:24:58.378Z,74.71
2023-11-30T01:25:58.439Z,75.34
2023-11-30T01:26:58.492Z,70.65
2023-11-30T01:27:58.475Z,67.96
2023-11-30T01:28:58.498Z,68.55
2023-11-30T01:29:58.558Z,64.41
2023-11-30T01:30:58.637Z,61.76
2023-11-30T01:31:58.630Z,74.86
2023-11-30T01:32:58.704Z,66.18
2023-11-30T01:33:58.661Z,69.09
2023-11-30T01:34:58.675Z,71.17
2023-11-30T01:35:58.800Z,72.65
2023-11-30T01:36:58.783Z,73.30
2023-11-30T01:37:58.820Z,75.19
2023-11-30T01:38:58.876Z,73.60
2023-11-30T01:39:58.910Z,76.15
2023-11-30T01:40:58.961Z,76.64
2023-11-30T01:41:59.029Z,74.37
2023-11-30T01:42:59.079Z,72.45
2023-11-30T01:43:59.161Z,72.59
2023-11-30T01:44:59.224Z,67.56
2023-11-30T01:46:03.582Z,66.30
2023-11-30T01:47:00.246Z,66.36
2023-11-30T01:47:59.304Z,66.65
2023-11-30T01:48:59.326Z,64.76
2023-11-30T01:49:59.217Z,70.19
2023-11-30T01:50:59.301Z,70.14
2023-11-30T01:51:59.276Z,68.93
2023-11-30T01:52:59.273Z,64.30
2023-11-30T01:53:59.285Z,68.81
2023-11-30T01:54:59.219Z,71.00
2023-11-30T01:55:59.281Z,69.19
2023-11-30T01:56:59.261Z,71.57
2023-11-30T01:57:59.268Z,68.57
2023-11-30T01:58:59.274Z,73.21
2023-11-30T01:59:59.299Z,70.21
2023-11-30T02:00:59.227Z,69.34
2023-11-30T02:01:59.397Z,70.74
2023-11-30T02:02:59.350Z,68.48
2023-11-30T02:03:59.296Z,70.95
2023-11-30T02:04:59.169Z,70.23
2023-11-30T02:05:59.234Z,70.68
2023-11-30T02:06:59.270Z,70.10
2023-11-30T02:07:59.368Z,72.99
2023-11-30T02:08:59.343Z,77.29
2023-11-30T02:09:59.341Z,74.14
2023-11-30T02:10:59.416Z,73.48
2023-11-30T02:11:59.436Z,77.00
2023-11-30T02:12:59.501Z,74.44
2023-11-30T02:13:59.503Z,73.12
2023-11-30T02:14:59.564Z,72.01
2023-11-30T02:15:59.632Z,77.86
2023-11-30T02:16:59.658Z,78.19
2023-11-30T02:17:59.759Z,78.18
2023-11-30T02:18:59.731Z,77.51
2023-11-30T02:19:59.837Z,80.25
2023-11-30T02:20:59.868Z,74.76
2023-11-30T02:21:59.925Z,73.52
2023-11-30T02:23:00.021Z,74.52
2023-11-30T02:24:00.069Z,78.34
2023-11-30T02:25:00.180Z,74.89
2023-11-30T02:26:00.234Z,79.56
2023-11-30T02:27:00.318Z,77.88
2023-11-30T02:28:00.355Z,79.15
2023-11-30T02:29:00.416Z,79.93
2023-11-30T02:30:00.505Z,76.37
2023-11-30T02:31:00.509Z,77.83
2023-11-30T02:32:00.631Z,79.57
2023-11-30T02:33:00.732Z,77.21
2023-11-30T02:34:00.706Z,76.08
2023-11-30T02:35:00.772Z,73.08
2023-11-30T02:36:00.878Z,78.08
2023-11-30T02:37:00.907Z,75.48
2023-11-30T02:38:00.929Z,73.10
2023-11-30T02:39:01.067Z,75.53
2023-11-30T02:40:01.053Z,78.67
2023-11-30T02:41:01.047Z,72.21
2023-11-30T02:42:01.141Z,73.46
2023-11-30T02:43:01.125Z,72.53
2023-11-30T02:44:01.185Z,74.30
2023-11-30T02:45:01.259Z,70.09
2023-11-30T02:46:01.249Z,79.47
2023-11-30T02:47:01.264Z,69.23
2023-11-30T02:48:01.349Z,73.00
2023-11-30T02:49:01.324Z,74.25
2023-11-30T02:50:01.350Z,77.32
2023-11-30T02:51:01.408Z,77.35
2023-11-30T02:52:01.383Z,76.60
2023-11-30T02:53:01.412Z,73.98
2023-11-30T02:54:01.461Z,71.68
2023-11-30T02:55:01.495Z,71.38
2023-11-30T02:56:01.507Z,76.44
2023-11-30T02:57:01.549Z,69.35
2023-11-30T02:58:01.536Z,69.48
2023-11-30T02:59:01.529Z,67.59
2023-11-30T03:00:01.633Z,69.10
2023-11-30T03:01:01.588Z,69.62
2023-11-30T03:02:01.762Z,67.69
2023-11-30T03:03:01.644Z,68.44
2023-11-30T03:04:01.682Z,69.09
2023-11-30T03:05:01.629Z,66.39
2023-11-30T03:06:01.687Z,71.58
2023-11-30T03:07:01.699Z,70.07
2023-11-30T03:08:01.708Z,71.26
2023-11-30T03:09:01.726Z,65.89
2023-11-30T03:10:01.720Z,71.35
2023-11-30T03:11:01.723Z,68.09
2023-11-30T03:12:01.770Z,68.26
2023-11-30T03:13:01.731Z,66.61
2023-11-30T03:14:01.732Z,64.79
2023-11-30T03:15:01.792Z,66.79
2023-11-30T03:16:01.817Z,65.57
2023-11-30T03:17:01.791Z,69.38
2023-11-30T03:18:01.889Z,67.48
2023-11-30T03:19:13.904Z,64.93
2023-11-30T03:20:02.876Z,64.98
2023-11-30T03:21:01.859Z,65.28
2023-11-30T03:22:01.813Z,65.57
2023-11-30T03:23:01.789Z,67.87
2023-11-30T03:24:01.809Z,68.38
2023-11-30T03:25:01.796Z,66.96
2023-11-30T03:26:01.783Z,68.73
2023-11-30T03:27:01.836Z,67.25
2023-11-30T03:28:01.780Z,66.87
2023-11-30T03:29:01.817Z,66.84
2023-11-30T03:30:01.882Z,67.11
2023-11-30T03:31:01.805Z,67.15
2023-11-30T03:32:01.835Z,67.93
2023-11-30T03:33:01.906Z,67.60
2023-11-30T03:34:01.815Z,67.24
2023-11-30T03:35:01.858Z,65.57
2023-11-30T03:36:01.864Z,67.13
2023-11-30T03:37:01.929Z,66.32
2023-11-30T03:38:01.806Z,68.78
2023-11-30T03:39:01.838Z,66.88
2023-11-30T03:40:01.841Z,65.75
2023-11-30T03:41:01.827Z,67.27
2023-11-30T03:42:01.836Z,65.77
2023-11-30T03:43:01.814Z,69.12
2023-11-30T03:44:01.822Z,68.34
2023-11-30T03:45:01.863Z,67.59
2023-11-30T03:46:01.874Z,68.28
2023-11-30T03:47:01.850Z,67.04
2023-11-30T03:48:01.907Z,67.15
2023-11-30T03:49:01.820Z,67.65
2023-11-30T03:50:01.839Z,65.07
2023-11-30T03:51:01.891Z,67.15
2023-11-30T03:52:01.877Z,67.49
2023-11-30T03:53:01.929Z,66.42
2023-11-30T03:54:01.893Z,66.73
2023-11-30T03:55:01.840Z,67.24
2023-11-30T03:56:01.874Z,67.97
2023-11-30T03:57:01.881Z,65.82
2023-11-30T03:58:02.660Z,66.87
2023-11-30T03:59:01.840Z,65.49
2023-11-30T04:00:01.980Z,65.90
2023-11-30T04:01:01.872Z,65.52
2023-11-30T04:02:01.987Z,65.91
2023-11-30T04:03:01.941Z,68.36
2023-11-30T04:04:01.977Z,67.33
2023-11-30T04:05:01.913Z,66.68
2023-11-30T04:06:01.906Z,65.84
2023-11-30T04:07:01.929Z,68.83
2023-11-30T04:08:01.860Z,66.22
2023-11-30T04:09:01.914Z,68.65
2023-11-30T04:10:01.882Z,68.87
2023-11-30T04:11:01.881Z,69.35
2023-11-30T04:12:01.911Z,65.96
2023-11-30T04:13:01.897Z,67.30
2023-11-30T04:14:01.891Z,66.94
2023-11-30T04:15:01.905Z,68.21
2023-11-30T04:16:01.882Z,68.04
2023-11-30T04:17:04.516Z,67.67
2023-11-30T04:18:01.967Z,67.71
2023-11-30T04:19:01.930Z,67.90
2023-11-30T04:20:01.904Z,67.44
2023-11-30T04:21:01.916Z,67.85
2023-11-30T04:22:01.872Z,65.73
2023-11-30T04:23:01.886Z,68.11
2023-11-30T04:24:01.903Z,67.62
2023-11-30T04:25:01.895Z,66.75
2023-11-30T04:26:01.906Z,68.32
2023-11-30T04:27:01.925Z,69.07
2023-11-30T04:28:01.895Z,66.13
2023-11-30T04:29:01.898Z,64.39
2023-11-30T04:30:01.931Z,68.76
2023-11-30T04:31:01.994Z,67.79
2023-11-30T04:32:01.924Z,67.92
2023-11-30T04:33:02.020Z,66.03
2023-11-30T04:34:01.918Z,67.94
2023-11-30T04:35:01.942Z,67.99
2023-11-30T04:36:01.958Z,67.39
2023-11-30T04:37:01.936Z,67.89
2023-11-30T04:38:01.920Z,68.65
2023-11-30T04:39:01.922Z,67.87
2023-11-30T04:40:01.891Z,68.38
2023-11-30T04:41:01.953Z,66.34
2023-11-30T04:42:01.942Z,64.84
2023-11-30T04:43:01.920Z,66.96
2023-11-30T04:44:01.906Z,69.58
2023-11-30T04:45:09.236Z,50.00
2023-11-30T04:46:09.289Z,50.00
2023-11-30T04:47:09.193Z,50.00
2023-11-30T04:48:09.317Z,50.00
2023-11-30T04:49:09.194Z,50.00
2023-11-30T04:50:09.205Z,50.24
2023-11-30T04:51:09.318Z,50.00
2023-11-30T04:52:09.223Z,50.22
2023-11-30T04:53:09.220Z,52.28
2023-11-30T04:54:09.242Z,52.95
2023-11-30T04:55:09.220Z,53.07
2023-11-30T04:56:09.207Z,51.48
2023-11-30T04:57:09.266Z,51.23
2023-11-30T04:58:09.200Z,53.27
2023-11-30T04:59:09.206Z,50.56
2023-11-30T05:00:09.229Z,50.34
2023-11-30T05:01:09.225Z,51.24
2023-11-30T05:02:09.371Z,52.00
2023-11-30T05:03:09.419Z,52.54
2023-11-30T05:04:09.371Z,52.49
2023-11-30T05:05:09.283Z,53.95
2023-11-30T05:06:09.243Z,51.12
2023-11-30T05:07:09.233Z,53.88
2023-11-30T05:08:09.221Z,53.34
2023-11-30T05:09:09.251Z,53.63
2023-11-30T05:10:09.218Z,55.71
2023-11-30T05:11:09.248Z,52.78
2023-11-30T05:12:09.270Z,51.35
2023-11-30T05:13:09.243Z,52.61
2023-11-30T05:14:09.249Z,53.60
2023-11-30T05:15:09.299Z,53.07
2023-11-30T05:16:09.219Z,52.67
2023-11-30T05:17:09.226Z,52.03
2023-11-30T05:18:09.360Z,53.19
2023-11-30T05:19:09.240Z,52.06
2023-11-30T05:20:09.227Z,55.18
2023-11-30T05:21:09.317Z,50.22
2023-11-30T05:22:10.724Z,52.22
2023-11-30T05:23:09.238Z,50.24
2023-11-30T05:24:09.255Z,51.10
2023-11-30T05:25:09.217Z,53.74
2023-11-30T05:26:09.260Z,51.59
2023-11-30T05:27:09.310Z,52.48
2023-11-30T05:28:09.264Z,51.80
2023-11-30T05:29:09.320Z,51.56
2023-11-30T05:30:09.292Z,52.75
2023-11-30T05:31:09.262Z,52.37
2023-11-30T05:32:09.274Z,52.35
2023-11-30T05:33:09.323Z,51.56
2023-11-30T05:34:09.263Z,52.64
2023-11-30T05:35:09.260Z,51.20
2023-11-30T05:36:09.267Z,52.25
2023-11-30T05:37:09.250Z,52.54
2023-11-30T05:38:09.284Z,52.58
2023-11-30T05:39:09.318Z,55.93
2023-11-30T05:40:09.279Z,51.87
2023-11-30T05:41:09.259Z,53.46
2023-11-30T05:42:09.288Z,53.65
2023-11-30T05:43:09.264Z,51.95
2023-11-30T05:44:09.298Z,53.15
2023-11-30T05:45:09.321Z,57.34
2023-11-30T05:46:09.274Z,53.99
2023-11-30T05:47:09.254Z,56.70
2023-11-30T05:48:09.327Z,54.58
2023-11-30T05:49:09.360Z,56.17
2023-11-30T05:50:09.274Z,56.85
2023-11-30T05:51:09.392Z,60.91
2023-11-30T05:52:09.287Z,54.25
2023-11-30T05:53:09.297Z,54.75
2023-11-30T05:54:09.357Z,59.16
2023-11-30T05:55:09.261Z,54.59
2023-11-30T05:56:09.283Z,59.41
2023-11-30T05:57:09.312Z,59.15
2023-11-30T05:58:09.297Z,59.17
2023-11-30T05:59:09.300Z,59.34
2023-11-30T06:00:09.343Z,52.71
2023-11-30T06:01:31.813Z,58.01
2023-11-30T06:02:09.415Z,58.17
2023-11-30T06:03:09.462Z,58.21
2023-11-30T06:04:09.404Z,58.44
2023-11-30T06:05:09.449Z,57.08
2023-11-30T06:06:09.378Z,54.91
2023-11-30T06:07:09.336Z,61.04
2023-11-30T06:08:09.300Z,58.40
2023-11-30T06:09:09.389Z,58.20
2023-11-30T06:10:09.355Z,59.60
2023-11-30T06:11:09.326Z,60.62
2023-11-30T06:12:09.362Z,57.97
2023-11-30T06:13:09.364Z,55.86
2023-11-30T06:14:09.322Z,58.89
2023-11-30T06:15:09.460Z,57.67
2023-11-30T06:16:09.392Z,53.56
2023-11-30T06:17:09.411Z,55.26
2023-11-30T06:18:09.396Z,53.87
2023-11-30T06:19:09.368Z,51.31
2023-11-30T06:20:10.682Z,55.77
2023-11-30T06:21:09.351Z,51.93
2023-11-30T06:22:09.348Z,51.50
2023-11-30T06:23:09.363Z,57.38
2023-11-30T06:24:09.362Z,53.94
2023-11-30T06:25:09.417Z,57.03
2023-11-30T06:26:09.366Z,51.92
2023-11-30T06:27:09.386Z,55.89
2023-11-30T06:28:09.909Z,53.22
2023-11-30T06:29:09.360Z,50.00
2023-11-30T06:30:09.420Z,54.38
2023-11-30T06:31:09.385Z,50.63
2023-11-30T06:32:09.366Z,55.11
2023-11-30T06:33:09.474Z,56.71
2023-11-30T06:34:09.354Z,56.62
2023-11-30T06:35:09.374Z,61.85
2023-11-30T06:36:09.408Z,61.57
2023-11-30T06:37:09.351Z,65.34
2023-11-30T06:38:09.447Z,62.44
2023-11-30T06:39:09.353Z,67.34
2023-11-30T06:40:09.435Z,65.93
2023-11-30T06:41:09.436Z,61.24
2023-11-30T06:42:09.414Z,58.06
2023-11-30T06:43:09.361Z,58.84
2023-11-30T06:44:09.462Z,58.95
2023-11-30T06:45:09.410Z,66.31
2023-11-30T06:46:32.981Z,68.28
2023-11-30T06:47:09.619Z,68.50
2023-11-30T06:48:10.016Z,68.99
2023-11-30T06:49:09.687Z,68.99
2023-11-30T06:50:09.680Z,71.80
2023-11-30T06:51:09.734Z,82.81
2023-11-30T06:52:09.693Z,89.32
2023-11-30T06:53:09.921Z,92.13
2023-11-30T06:54:09.796Z,92.77
2023-11-30T06:55:09.856Z,94.76
2023-11-30T06:56:09.883Z,100.21
2023-11-30T06:57:09.946Z,110.67
2023-11-30T06:58:10.415Z,109.11
2023-11-30T06:59:10.133Z,105.44
2023-11-30T07:00:10.228Z,108.56
2023-11-30T07:01:10.226Z,109.31
2023-11-30T07:02:10.297Z,109.23
2023-11-30T07:03:10.480Z,107.76
2023-11-30T07:04:10.571Z,106.66
2023-11-30T07:05:10.497Z,104.00
2023-11-30T07:06:10.674Z,102.32
2023-11-30T07:07:17.268Z,105.56
2023-11-30T07:08:11.620Z,105.90
2023-11-30T07:09:10.620Z,107.25
2023-11-30T07:10:10.566Z,110.55
2023-11-30T07:11:12.428Z,115.13
2023-11-30T07:12:11.235Z,121.59
2023-11-30T07:13:10.621Z,122.88
2023-11-30T07:14:10.576Z,125.64
2023-11-30T07:15:10.596Z,128.43
2023-11-30T07:16:10.583Z,129.12
2023-11-30T07:17:10.588Z,127.51
2023-11-30T07:18:10.756Z,128.45
2023-11-30T07:19:10.626Z,125.55
2023-11-30T07:20:10.570Z,126.95
2023-11-30T07:21:10.631Z,132.73
2023-11-30T07:22:10.578Z,131.93
2023-11-30T07:23:10.567Z,133.69
2023-11-30T07:24:13.132Z,127.23
2023-11-30T07:25:10.584Z,126.41
2023-11-30T07:26:10.594Z,131.44
2023-11-30T07:27:10.864Z,132.72
2023-11-30T07:28:11.466Z,134.61
2023-11-30T07:29:10.585Z,137.22
2023-11-30T07:30:10.743Z,140.07
2023-11-30T07:31:10.622Z,139.59
2023-11-30T07:32:10.607Z,141.06
2023-11-30T07:33:10.674Z,142.34
2023-11-30T07:34:10.606Z,143.36
2023-11-30T07:35:10.605Z,141.48
2023-11-30T07:36:12.640Z,140.44
2023-11-30T07:37:10.603Z,140.54
2023-11-30T07:38:10.686Z,141.66
2023-11-30T07:39:10.600Z,145.27
2023-11-30T07:40:12.401Z,161.50
2023-11-30T07:41:10.599Z,178.23
2023-11-30T07:42:10.606Z,177.82
2023-11-30T07:43:10.621Z,174.04
2023-11-30T07:44:10.592Z,169.76
2023-11-30T07:45:10.764Z,161.54
2023-11-30T07:46:10.616Z,158.45
2023-11-30T07:47:11.701Z,153.90
2023-11-30T07:48:10.779Z,150.57
2023-11-30T07:49:10.599Z,149.04
2023-11-30T07:50:10.602Z,143.92
2023-11-30T07:51:10.648Z,146.28
2023-11-30T07:52:10.601Z,146.59
2023-11-30T07:53:10.600Z,144.56
2023-11-30T07:54:10.659Z,144.28
2023-11-30T07:55:10.603Z,145.55
2023-11-30T07:56:10.590Z,146.57
2023-11-30T07:57:10.614Z,145.91
2023-11-30T07:58:10.603Z,148.97
2023-11-30T07:59:10.602Z,151.89
2023-11-30T08:00:10.694Z,153.51
2023-11-30T08:01:10.757Z,163.03
2023-11-30T08:02:10.643Z,167.70
2023-11-30T08:03:10.730Z,170.60
2023-11-30T08:04:10.852Z,174.17
2023-11-30T08:05:10.645Z,175.22
2023-11-30T08:06:10.635Z,173.55
2023-11-30T08:07:10.619Z,176.16
2023-11-30T08:08:10.626Z,174.00
2023-11-30T08:09:10.837Z,178.73
2023-11-30T08:10:10.647Z,178.21
2023-11-30T08:11:10.645Z,180.34
2023-11-30T08:12:10.768Z,179.26
2023-11-30T08:13:10.610Z,179.43
2023-11-30T08:14:10.970Z,178.09
2023-11-30T08:15:10.731Z,173.13
2023-11-30T08:16:10.619Z,174.41
2023-11-30T08:17:10.626Z,175.30
2023-11-30T08:18:10.650Z,170.65
2023-11-30T08:19:10.696Z,169.11
2023-11-30T08:20:10.658Z,169.19
2023-11-30T08:21:10.608Z,168.20
2023-11-30T08:22:12.369Z,167.15
2023-11-30T08:23:10.621Z,167.39
2023-11-30T08:24:10.626Z,167.23
2023-11-30T08:25:10.615Z,169.51
2023-11-30T08:26:10.626Z,165.16
2023-11-30T08:27:10.690Z,168.42
2023-11-30T08:28:10.601Z,166.09
2023-11-30T08:29:10.609Z,163.18
2023-11-30T08:30:10.625Z,162.18
2023-11-30T08:31:10.665Z,163.79
2023-11-30T08:32:10.635Z,160.45
2023-11-30T08:33:10.690Z,158.03
2023-11-30T08:34:11.027Z,156.16
2023-11-30T08:35:10.652Z,153.86
2023-11-30T08:36:10.653Z,154.66
2023-11-30T08:37:10.629Z,152.07
2023-11-30T08:38:10.621Z,152.20
2023-11-30T08:39:10.638Z,151.52
2023-11-30T08:40:10.619Z,151.40
2023-11-30T08:41:10.625Z,165.18
2023-11-30T08:42:10.700Z,169.38
2023-11-30T08:43:10.640Z,168.81
2023-11-30T08:44:10.628Z,167.20
2023-11-30T08:45:10.715Z,167.72
2023-11-30T08:46:10.648Z,164.28
2023-11-30T08:47:10.622Z,164.88
2023-11-30T08:48:10.718Z,162.48
2023-11-30T08:49:10.650Z,161.75
2023-11-30T08:50:10.647Z,157.93
2023-11-30T08:51:10.648Z,158.26
2023-11-30T08:52:10.668Z,158.07
2023-11-30T08:53:10.643Z,155.52
2023-11-30T08:54:10.696Z,156.11
2023-11-30T08:55:10.646Z,155.99
2023-11-30T08:56:10.653Z,154.38
2023-11-30T08:57:10.653Z,152.75
2023-11-30T08:58:10.646Z,150.16
2023-11-30T08:59:10.700Z,151.18
2023-11-30T09:00:10.758Z,151.85
2023-11-30T09:01:10.672Z,151.14
2023-11-30T09:02:10.690Z,151.09
2023-11-30T09:03:10.754Z,151.59
2023-11-30T09:04:11.033Z,152.44
2023-11-30T09:05:10.676Z,151.36
2023-11-30T09:06:10.686Z,149.39
2023-11-30T09:07:10.697Z,148.59
2023-11-30T09:08:10.665Z,148.41
2023-11-30T09:09:10.759Z,149.01
2023-11-30T09:10:10.663Z,148.59
2023-11-30T09:11:10.647Z,149.43
2023-11-30T09:12:10.654Z,147.74
2023-11-30T09:13:10.648Z,147.23
2023-11-30T09:14:10.688Z,148.58
2023-11-30T09:15:10.717Z,147.79
2023-11-30T09:16:10.720Z,145.80
2023-11-30T09:17:10.654Z,145.18
2023-11-30T09:18:10.733Z,142.03
2023-11-30T09:19:10.664Z,141.61
2023-11-30T09:20:10.655Z,141.58
2023-11-30T09:21:10.694Z,138.71
2023-11-30T09:22:10.668Z,138.93
2023-11-30T09:23:10.664Z,138.56
2023-11-30T09:24:10.998Z,136.60
2023-11-30T09:25:10.667Z,135.18
2023-11-30T09:26:10.692Z,136.89
2023-11-30T09:27:11.471Z,135.40
2023-11-30T09:28:10.835Z,136.24
2023-11-30T09:29:10.673Z,135.27
2023-11-30T09:30:10.671Z,137.82
2023-11-30T09:31:10.671Z,133.74
2023-11-30T09:32:10.667Z,133.97
2023-11-30T09:33:10.768Z,131.05
2023-11-30T09:34:11.065Z,132.71
2023-11-30T09:35:10.745Z,134.02
2023-11-30T09:36:10.731Z,138.59
2023-11-30T09:37:10.655Z,140.37
2023-11-30T09:38:10.662Z,142.20
2023-11-30T09:39:11.005Z,140.28
2023-11-30T09:40:10.682Z,142.26
2023-11-30T09:41:10.632Z,142.57
2023-11-30T09:42:10.716Z,141.81
2023-11-30T09:43:10.654Z,143.32
2023-11-30T09:44:10.705Z,145.09
2023-11-30T09:45:11.513Z,144.50
2023-11-30T09:46:10.824Z,143.73
2023-11-30T09:47:10.692Z,142.99
2023-11-30T09:48:10.744Z,144.29
2023-11-30T09:49:10.678Z,142.51
2023-11-30T09:50:10.978Z,142.65
2023-11-30T09:51:10.741Z,141.22
2023-11-30T09:52:10.719Z,137.36
2023-11-30T09:53:10.668Z,137.79
2023-11-30T09:54:10.761Z,136.23
2023-11-30T09:55:12.669Z,137.95
2023-11-30T09:56:10.680Z,138.11
2023-11-30T09:57:10.731Z,138.68
2023-11-30T09:58:10.718Z,139.04
2023-11-30T09:59:10.667Z,143.44
2023-11-30T10:00:11.278Z,150.20
2023-11-30T10:01:10.768Z,151.20
2023-11-30T10:02:10.833Z,148.63
2023-11-30T10:03:10.742Z,146.25
2023-11-30T10:04:10.758Z,138.64
2023-11-30T10:05:10.977Z,130.72
2023-11-30T10:06:10.697Z,127.54
2023-11-30T10:07:10.749Z,124.69
2023-11-30T10:08:10.708Z,123.38
2023-11-30T10:09:10.668Z,121.04
2023-11-30T10:10:10.695Z,121.66
2023-11-30T10:11:10.701Z,122.53
2023-11-30T10:12:10.732Z,118.68
2023-11-30T10:13:10.679Z,118.18
2023-11-30T10:14:10.770Z,119.03
2023-11-30T10:15:10.769Z,120.03
2023-11-30T10:16:10.695Z,116.36
2023-11-30T10:17:10.730Z,118.64
2023-11-30T10:18:10.790Z,117.92
2023-11-30T10:19:10.825Z,117.46
2023-11-30T10:20:10.989Z,114.51
2023-11-30T10:21:10.780Z,114.26
2023-11-30T10:22:10.681Z,115.44
2023-11-30T10:23:10.694Z,114.57
2023-11-30T10:24:10.732Z,113.97
2023-11-30T10:25:11.033Z,115.28
2023-11-30T10:26:10.711Z,113.83
2023-11-30T10:27:10.746Z,112.52
2023-11-30T10:28:10.708Z,114.05
2023-11-30T10:29:10.726Z,112.20
2023-11-30T10:30:10.759Z,112.62
2023-11-30T10:31:10.757Z,108.67
2023-11-30T10:32:10.706Z,110.53
2023-11-30T10:33:10.785Z,109.99
2023-11-30T10:34:10.851Z,107.71
2023-11-30T10:35:10.753Z,109.99
2023-11-30T10:36:10.775Z,111.74
2023-11-30T10:37:10.672Z,110.07
2023-11-30T10:38:10.697Z,109.27
2023-11-30T10:39:10.743Z,108.25
2023-11-30T10:40:10.729Z,109.24
2023-11-30T10:41:10.728Z,110.85
2023-11-30T10:42:10.762Z,108.83
2023-11-30T10:43:10.714Z,108.11
2023-11-30T10:44:10.731Z,108.19
2023-11-30T10:45:10.769Z,108.33
2023-11-30T10:46:10.749Z,108.33
2023-11-30T10:47:10.669Z,106.25
2023-11-30T10:48:10.752Z,103.24
2023-11-30T10:49:10.682Z,102.59
2023-11-30T10:50:10.979Z,100.32
2023-11-30T10:51:10.706Z,96.75
2023-11-30T10:52:10.713Z,95.25
2023-11-30T10:53:10.673Z,97.04
2023-11-30T10:54:10.763Z,95.45
2023-11-30T10:55:11.038Z,93.47
2023-11-30T10:56:10.862Z,94.35
2023-11-30T10:57:10.982Z,95.01
2023-11-30T10:58:10.976Z,93.99
2023-11-30T10:59:11.063Z,94.54
2023-11-30T11:00:11.152Z,96.72
2023-11-30T11:01:11.226Z,95.69
2023-11-30T11:02:11.411Z,94.52
2023-11-30T11:03:11.446Z,97.98
2023-11-30T11:04:11.503Z,95.85
2023-11-30T11:05:11.504Z,96.94
2023-11-30T11:06:11.572Z,95.84
2023-11-30T11:07:11.624Z,97.53
2023-11-30T11:08:11.667Z,98.02
2023-11-30T11:09:11.776Z,97.68
2023-11-30T11:10:11.989Z,98.63
2023-11-30T11:11:11.850Z,102.11
2023-11-30T11:12:11.955Z,98.62
2023-11-30T11:13:11.928Z,102.15
2023-11-30T11:14:11.938Z,101.73
2023-11-30T11:15:15.806Z,104.57
2023-11-30T11:16:12.149Z,104.66
2023-11-30T11:17:11.957Z,105.07
2023-11-30T11:18:12.081Z,106.12
2023-11-30T11:19:12.002Z,110.46
2023-11-30T11:20:11.987Z,113.87
2023-11-30T11:21:12.045Z,113.87
2023-11-30T11:22:12.001Z,117.77
2023-11-30T11:23:11.979Z,122.30
2023-11-30T11:24:12.061Z,124.06
2023-11-30T11:25:12.021Z,124.14
2023-11-30T11:26:12.041Z,125.37
2023-11-30T11:27:12.063Z,126.48
2023-11-30T11:28:12.160Z,129.16
2023-11-30T11:29:12.225Z,128.45
2023-11-30T11:30:12.309Z,130.27
2023-11-30T11:31:13.303Z,130.06
2023-11-30T11:32:12.291Z,130.70
2023-11-30T11:33:12.410Z,131.87
2023-11-30T11:34:12.315Z,132.45
2023-11-30T11:35:12.519Z,132.59
2023-11-30T11:36:13.430Z,130.36
2023-11-30T11:37:12.584Z,130.46
2023-11-30T11:38:12.292Z,130.18
2023-11-30T11:39:12.257Z,130.14
2023-11-30T11:40:12.514Z,129.67
2023-11-30T11:41:12.378Z,127.34
2023-11-30T11:42:12.413Z,129.39
2023-11-30T11:43:12.418Z,127.31
2023-11-30T11:44:12.458Z,124.59
2023-11-30T11:45:12.599Z,119.13
2023-11-30T11:46:12.541Z,116.51
2023-11-30T11:47:12.449Z,110.68
2023-11-30T11:48:12.590Z,109.32
2023-11-30T11:49:12.515Z,110.02
2023-11-30T11:50:12.534Z,110.67
2023-11-30T11:51:12.554Z,111.38
2023-11-30T11:52:12.502Z,110.65
2023-11-30T11:53:12.482Z,109.12
2023-11-30T11:54:12.557Z,108.87
2023-11-30T11:55:12.592Z,108.73
2023-11-30T11:56:12.653Z,110.11
2023-11-30T11:57:12.678Z,115.71
2023-11-30T11:58:12.732Z,115.37
2023-11-30T11:59:12.809Z,117.75
2023-11-30T12:00:12.936Z,118.57
2023-11-30T12:01:12.977Z,120.19
2023-11-30T12:02:13.013Z,118.76
2023-11-30T12:03:13.097Z,120.26
2023-11-30T12:04:13.203Z,118.30
2023-11-30T12:05:13.215Z,120.09
2023-11-30T12:06:13.336Z,120.10
2023-11-30T12:07:13.333Z,120.33
2023-11-30T12:08:14.025Z,122.79
2023-11-30T12:09:14.316Z,122.03
2023-11-30T12:10:13.564Z,123.49
2023-11-30T12:11:13.596Z,124.22
2023-11-30T12:12:13.728Z,125.49
2023-11-30T12:13:13.839Z,123.38
2023-11-30T12:14:13.855Z,121.75
2023-11-30T12:15:13.910Z,120.70
2023-11-30T12:16:14.062Z,123.34
2023-11-30T12:17:14.129Z,125.23
2023-11-30T12:18:14.246Z,128.34
2023-11-30T12:19:15.099Z,134.28
2023-11-30T12:20:14.663Z,136.95
2023-11-30T12:21:14.232Z,139.39
2023-11-30T12:22:14.264Z,140.89
2023-11-30T12:23:14.482Z,138.91
2023-11-30T12:24:14.371Z,132.17
2023-11-30T12:25:14.380Z,122.07
2023-11-30T12:26:14.405Z,114.44
2023-11-30T12:27:14.394Z,106.36
2023-11-30T12:28:14.402Z,100.50
2023-11-30T12:29:14.412Z,97.40
2023-11-30T12:30:14.605Z,93.48
2023-11-30T12:31:14.886Z,89.23
2023-11-30T12:32:14.450Z,86.81
2023-11-30T12:33:15.529Z,84.93
2023-11-30T12:34:14.575Z,82.96
2023-11-30T12:35:15.194Z,82.07
2023-11-30T12:36:14.773Z,82.10
2023-11-30T12:37:14.761Z,83.14
2023-11-30T12:38:14.827Z,81.78
2023-11-30T12:39:17.035Z,81.60
2023-11-30T12:40:15.249Z,80.03
2023-11-30T12:41:15.017Z,80.60
2023-11-30T12:42:15.030Z,81.28
2023-11-30T12:43:15.080Z,81.45